createdAt,value
2023-04-20T00:01:26.669Z,2.799
2023-04-20T00:03:23.829Z,2.900
2023-04-20T00:05:23.931Z,3.200
2023-04-20T00:06:24.084Z,3.099
2023-04-20T00:07:23.984Z,3.299
2023-04-20T00:08:24.099Z,3.200
2023-04-20T00:11:23.956Z,3
2023-04-20T00:12:23.947Z,3.099
2023-04-20T00:13:24.151Z,3
2023-04-20T00:14:23.814Z,3.099
2023-04-20T00:15:24.286Z,3.400
2023-04-20T00:16:37.691Z,3.299
2023-04-20T00:18:23.837Z,3.099
2023-04-20T00:19:23.630Z,3.299
2023-04-20T00:20:23.777Z,3.400
2023-04-20T00:21:23.957Z,3.200
2023-04-20T00:22:24.150Z,3.299
2023-04-20T00:24:23.769Z,3.400
2023-04-20T00:25:24.093Z,3.099
2023-04-20T00:26:23.893Z,3.200
2023-04-20T00:27:23.892Z,3.299
2023-04-20T00:28:23.965Z,3.200
2023-04-20T00:29:23.710Z,3.5
2023-04-20T00:30:24.490Z,3.299
2023-04-20T00:31:23.934Z,3.200
2023-04-20T00:32:24.021Z,3.400
2023-04-20T00:33:24.270Z,3.299
2023-04-20T00:34:23.596Z,3.5
2023-04-20T00:35:23.991Z,3
2023-04-20T00:36:23.545Z,3.400
2023-04-20T00:37:23.803Z,3
2023-04-20T00:38:24.086Z,3.299
2023-04-20T00:39:23.599Z,3.599
2023-04-20T00:40:24.047Z,3.299
2023-04-20T00:41:24.187Z,2.900
2023-04-20T00:42:23.952Z,3.200
2023-04-20T00:43:24.322Z,3.5
2023-04-20T00:44:23.626Z,3
2023-04-20T00:45:24.357Z,3.299
2023-04-20T00:47:24.266Z,3.400
2023-04-20T00:51:23.952Z,3.5
2023-04-20T00:53:23.789Z,3.799
2023-04-20T00:54:23.773Z,3.5
2023-04-20T00:55:24.180Z,3.299
2023-04-20T00:56:23.674Z,3.599
2023-04-20T00:57:23.715Z,3.5
2023-04-20T00:59:23.446Z,3.700
2023-04-20T01:00:24.749Z,3.599
2023-04-20T01:01:24.025Z,3.400
2023-04-20T01:02:23.826Z,3.599
2023-04-20T01:03:23.856Z,3.400
2023-04-20T01:04:23.890Z,3.900
2023-04-20T01:05:24.315Z,3.5
2023-04-20T01:06:23.947Z,3.700
2023-04-20T01:07:23.821Z,3.400
2023-04-20T01:08:23.968Z,3.5
2023-04-20T01:10:24.326Z,3.400
2023-04-20T01:11:23.679Z,3.599
2023-04-20T01:12:23.760Z,3.400
2023-04-20T01:13:23.747Z,3.299
2023-04-20T01:14:24.033Z,3.5
2023-04-20T01:17:23.786Z,3.599
2023-04-20T01:18:23.944Z,3.5
2023-04-20T01:19:23.979Z,3.799
2023-04-20T01:20:23.909Z,3.599
2023-04-20T01:21:23.717Z,3.400
2023-04-20T01:22:23.873Z,3.5
2023-04-20T01:23:24.352Z,3.400
2023-04-20T01:24:23.815Z,3.5
2023-04-20T01:25:24.120Z,3.599
2023-04-20T01:26:23.796Z,3.700
2023-04-20T01:27:23.884Z,3.5
2023-04-20T01:29:23.666Z,3.700
2023-04-20T01:31:23.649Z,3.599
2023-04-20T01:33:23.777Z,3.799
2023-04-20T01:34:24.025Z,3.700
2023-04-20T01:35:24.202Z,3.5
2023-04-20T01:36:23.633Z,3.900
2023-04-20T01:39:24.160Z,4
2023-04-20T01:40:23.813Z,3.799
2023-04-20T01:41:23.772Z,3.700
2023-04-20T01:42:24.065Z,3.5
2023-04-20T01:43:23.729Z,3.900
2023-04-20T01:48:24.209Z,3.599
2023-04-20T01:49:23.630Z,3.700
2023-04-20T01:50:24.024Z,3.900
2023-04-20T01:51:23.812Z,4
2023-04-20T01:52:23.880Z,3.900
2023-04-20T01:53:23.796Z,3.799
2023-04-20T01:54:24.072Z,3.900
2023-04-20T01:55:24.030Z,4.099
2023-04-20T01:56:23.776Z,3.799
2023-04-20T01:57:23.783Z,3.900
2023-04-20T01:58:24.293Z,4
2023-04-20T01:59:23.474Z,3.799
2023-04-20T02:01:23.906Z,3.900
2023-04-20T02:03:24.049Z,4
2023-04-20T02:04:23.659Z,3.599
2023-04-20T02:05:23.709Z,3.900
2023-04-20T02:08:23.970Z,4.199
2023-04-20T02:09:24.073Z,3.900
2023-04-20T02:10:23.728Z,3.799
2023-04-20T02:12:24.108Z,3.900
2023-04-20T02:13:23.536Z,4.099
2023-04-20T02:14:23.995Z,3.799
2023-04-20T02:15:23.921Z,3.700
2023-04-20T02:16:24.182Z,4
2023-04-20T02:18:23.999Z,4.199
2023-04-20T02:20:24.120Z,4.300
2023-04-20T02:21:23.635Z,4.5
2023-04-20T02:22:23.777Z,4.300
2023-04-20T02:23:23.868Z,4.400
2023-04-20T02:25:23.734Z,4.599
2023-04-20T02:26:23.664Z,5
2023-04-20T02:27:23.631Z,4.900
2023-04-20T02:28:23.577Z,4.5
2023-04-20T02:31:31.659Z,5
2023-04-20T02:32:23.923Z,4.800
2023-04-20T02:33:23.867Z,4.099
2023-04-20T02:34:23.736Z,4.300
2023-04-20T02:35:23.948Z,4.199
2023-04-20T02:36:23.632Z,4.699
2023-04-20T02:37:23.657Z,4.199
2023-04-20T02:38:23.732Z,4.300
2023-04-20T02:39:23.662Z,4.199
2023-04-20T02:40:24.141Z,4.300
2023-04-20T02:41:23.391Z,4.099
2023-04-20T02:42:24.043Z,4.300
2023-04-20T02:43:23.844Z,4
2023-04-20T02:45:24.379Z,4.099
2023-04-20T02:46:23.659Z,4.599
2023-04-20T02:47:23.564Z,4.099
2023-04-20T02:48:24.242Z,4
2023-04-20T02:49:23.693Z,4.599
2023-04-20T02:50:23.837Z,3.799
2023-04-20T02:51:23.917Z,4.099
2023-04-20T02:52:24.049Z,4
2023-04-20T02:53:23.989Z,3.700
2023-04-20T02:54:24.095Z,3.799
2023-04-20T02:55:24.445Z,3.700
2023-04-20T02:56:23.499Z,3.900
2023-04-20T02:57:23.626Z,4.099
2023-04-20T02:58:23.944Z,3.900
2023-04-20T02:59:24.163Z,4
2023-04-20T03:00:24.763Z,3.900
2023-04-20T03:02:24.179Z,3.799
2023-04-20T03:04:23.807Z,3.900
2023-04-20T03:05:23.938Z,4.099
2023-04-20T03:06:24.473Z,4
2023-04-20T03:07:23.950Z,4.099
2023-04-20T03:08:24.360Z,4
2023-04-20T03:09:23.761Z,4.099
2023-04-20T03:10:24.243Z,4.199
2023-04-20T03:12:23.960Z,3.799
2023-04-20T03:13:23.977Z,4
2023-04-20T03:14:23.808Z,3.799
2023-04-20T03:15:23.805Z,4.199
2023-04-20T03:16:23.947Z,3.900
2023-04-20T03:17:23.966Z,4
2023-04-20T03:18:24.159Z,4.400
2023-04-20T03:19:24.115Z,4
2023-04-20T03:20:24.023Z,4.099
2023-04-20T03:21:23.808Z,4.300
2023-04-20T03:24:27.476Z,4.099
2023-04-20T03:25:24.454Z,4
2023-04-20T03:26:23.999Z,4.199
2023-04-20T03:28:23.915Z,4.800
2023-04-20T03:29:24.034Z,4.5
2023-04-20T03:30:24.812Z,4.699
2023-04-20T03:31:24.164Z,4.599
2023-04-20T03:32:23.945Z,4.800
2023-04-20T03:33:24.002Z,4.599
2023-04-20T03:34:23.832Z,4.199
2023-04-20T03:35:24.324Z,4.300
2023-04-20T03:36:23.921Z,4.699
2023-04-20T03:37:23.703Z,4.400
2023-04-20T03:38:24.304Z,4.699
2023-04-20T03:39:23.752Z,4.400
2023-04-20T03:40:24.412Z,4.699
2023-04-20T03:41:24.034Z,4.800
2023-04-20T03:42:23.777Z,4.5
2023-04-20T03:43:24.070Z,4.800
2023-04-20T03:44:24.015Z,4.599
2023-04-20T03:45:24.371Z,4.699
2023-04-20T03:46:24.042Z,4.400
2023-04-20T03:47:24.069Z,4.300
2023-04-20T03:48:23.660Z,4.5
2023-04-20T03:49:24.127Z,4.699
2023-04-20T03:50:23.991Z,4.599
2023-04-20T03:51:23.796Z,4.699
2023-04-20T03:52:23.922Z,4.900
2023-04-20T03:53:24.089Z,4.800
2023-04-20T03:54:23.986Z,5
2023-04-20T03:55:23.877Z,4.699
2023-04-20T03:56:24.088Z,5.099
2023-04-20T03:57:23.675Z,5
2023-04-20T03:58:23.919Z,4.900
2023-04-20T03:59:23.903Z,4.699
2023-04-20T04:00:25.539Z,5
2023-04-20T04:01:23.870Z,4.699
2023-04-20T04:02:24.124Z,4.800
2023-04-20T04:04:24.473Z,4.400
2023-04-20T04:05:24.947Z,5
2023-04-20T04:07:24.150Z,5.199
2023-04-20T04:08:23.798Z,5.300
2023-04-20T04:09:24.126Z,5
2023-04-20T04:10:23.871Z,5.199
2023-04-20T04:11:23.674Z,4.800
2023-04-20T04:12:24.629Z,5.400
2023-04-20T04:13:23.988Z,5.599
2023-04-20T04:14:24.538Z,4.900
2023-04-20T04:15:24.491Z,5.300
2023-04-20T04:17:23.882Z,5.099
2023-04-20T04:18:24.043Z,4.900
2023-04-20T04:19:23.889Z,5.400
2023-04-20T04:20:23.679Z,5
2023-04-20T04:22:23.619Z,4.800
2023-04-20T04:24:23.870Z,5.099
2023-04-20T04:25:24.659Z,5
2023-04-20T04:26:24.025Z,4.800
2023-04-20T04:27:23.932Z,5.400
2023-04-20T04:28:24.443Z,4.900
2023-04-20T04:29:24.127Z,5
2023-04-20T04:30:24.027Z,5.199
2023-04-20T04:31:23.659Z,5.099
2023-04-20T04:32:24.595Z,5.199
2023-04-20T04:33:24.010Z,4.699
2023-04-20T04:34:23.870Z,4.599
2023-04-20T04:35:24.129Z,5.199
2023-04-20T04:36:23.962Z,5
2023-04-20T04:37:24.000Z,5.099
2023-04-20T04:38:23.647Z,4.900
2023-04-20T04:39:24.253Z,4.800
2023-04-20T04:40:24.143Z,5.099
2023-04-20T04:41:24.075Z,5.400
2023-04-20T04:42:28.985Z,4.900
2023-04-20T04:43:24.214Z,4.5
2023-04-20T04:44:23.908Z,4.800
2023-04-20T04:45:23.712Z,4.400
2023-04-20T04:46:29.252Z,4.300
2023-04-20T04:47:24.018Z,4.400
2023-04-20T04:48:24.032Z,4.800
2023-04-20T04:49:24.068Z,4.400
2023-04-20T04:50:29.034Z,4.5
2023-04-20T04:51:24.732Z,4.599
2023-04-20T04:52:29.343Z,4.400
2023-04-20T04:53:24.354Z,4.5
2023-04-20T04:54:29.264Z,4.599
2023-04-20T04:55:24.057Z,4.400
2023-04-20T04:56:23.610Z,4.599
2023-04-20T04:59:23.685Z,5
2023-04-20T05:00:25.304Z,4.400
2023-04-20T05:01:24.537Z,4.599
2023-04-20T05:02:38.669Z,5.099
2023-04-20T05:03:24.033Z,5.199
2023-04-20T05:04:24.318Z,5.5
2023-04-20T05:05:24.329Z,5.800
2023-04-20T05:06:24.122Z,5.599
2023-04-20T05:07:23.953Z,5.900
2023-04-20T05:08:24.742Z,5.699
2023-04-20T05:09:24.225Z,6.099
2023-04-20T05:10:24.164Z,5.699
2023-04-20T05:11:23.950Z,5.800
2023-04-20T05:13:24.179Z,6.099
2023-04-20T05:14:23.948Z,5.599
2023-04-20T05:15:23.944Z,6
2023-04-20T05:16:23.916Z,5.699
2023-04-20T05:18:24.213Z,5.5
2023-04-20T05:19:23.957Z,5.599
2023-04-20T05:20:24.495Z,5.900
2023-04-20T05:21:24.552Z,5.800
2023-04-20T05:22:24.094Z,6.599
2023-04-20T05:24:24.197Z,6.5
2023-04-20T05:25:24.224Z,7.599
2023-04-20T05:27:24.086Z,6.800
2023-04-20T05:29:24.128Z,6.699
2023-04-20T05:30:46.579Z,6.599
2023-04-20T05:31:24.251Z,7
2023-04-20T05:32:24.133Z,7.099
2023-04-20T05:33:24.143Z,6.800
2023-04-20T05:34:23.793Z,6.900
2023-04-20T05:35:24.070Z,7.300
2023-04-20T05:36:23.812Z,6.800
2023-04-20T05:37:24.028Z,6.900
2023-04-20T05:39:24.141Z,6.400
2023-04-20T05:41:27.715Z,6.900
2023-04-20T05:42:24.493Z,6.800
2023-04-20T05:43:24.259Z,6.699
2023-04-20T05:44:24.057Z,6.599
2023-04-20T05:45:24.060Z,6.800
2023-04-20T05:46:24.000Z,7.099
2023-04-20T05:47:23.879Z,6.900
2023-04-20T05:48:24.224Z,7
2023-04-20T05:49:23.885Z,6.900
2023-04-20T05:50:24.846Z,7.400
2023-04-20T05:51:24.292Z,7
2023-04-20T05:53:27.691Z,7.099
2023-04-20T05:54:23.879Z,6.900
2023-04-20T05:55:24.412Z,6.800
2023-04-20T05:56:24.065Z,6.099
2023-04-20T05:57:23.869Z,6.199
2023-04-20T05:58:24.779Z,6.599
2023-04-20T05:59:24.019Z,6.699
2023-04-20T06:00:26.278Z,6.400
2023-04-20T06:01:23.928Z,6.300
2023-04-20T06:02:24.488Z,6
2023-04-20T06:03:24.412Z,5.800
2023-04-20T06:04:24.320Z,6.199
2023-04-20T06:05:24.578Z,5.599
2023-04-20T06:06:24.940Z,5.800
2023-04-20T06:07:23.802Z,6.400
2023-04-20T06:08:23.839Z,6.099
2023-04-20T06:09:23.858Z,6.400
2023-04-20T06:10:24.478Z,6.199
2023-04-20T06:11:23.974Z,6.900
2023-04-20T06:12:25.709Z,6.400
2023-04-20T06:13:23.918Z,6.599
2023-04-20T06:14:23.742Z,5.699
2023-04-20T06:16:23.588Z,6.300
2023-04-20T06:17:23.862Z,6
2023-04-20T06:18:23.697Z,6.199
2023-04-20T06:19:24.138Z,6
2023-04-20T06:20:23.842Z,6.199
2023-04-20T06:22:24.073Z,6.099
2023-04-20T06:23:24.292Z,6.199
2023-04-20T06:24:24.151Z,6.300
2023-04-20T06:25:24.018Z,5.800
2023-04-20T06:26:23.859Z,6.300
2023-04-20T06:27:23.840Z,5.900
2023-04-20T06:28:24.609Z,6.099
2023-04-20T06:29:23.857Z,6.199
2023-04-20T06:30:24.749Z,5.800
2023-04-20T06:31:24.284Z,6.400
2023-04-20T06:32:23.887Z,6.199
2023-04-20T06:33:24.041Z,5.5
2023-04-20T06:34:23.782Z,6.300
2023-04-20T06:35:23.969Z,6.099
2023-04-20T06:36:23.940Z,6
2023-04-20T06:39:24.176Z,5.900
2023-04-20T06:40:24.369Z,6
2023-04-20T06:41:23.836Z,5.800
2023-04-20T06:42:24.088Z,5.699
2023-04-20T06:43:23.822Z,5.900
2023-04-20T06:47:23.954Z,5.5
2023-04-20T06:48:30.779Z,6.099
2023-04-20T06:49:24.085Z,5.699
2023-04-20T06:50:24.249Z,5.900
2023-04-20T06:52:24.296Z,6
2023-04-20T06:53:24.182Z,5.699
2023-04-20T06:54:24.199Z,6
2023-04-20T06:56:24.195Z,5.599
2023-04-20T06:57:24.241Z,6
2023-04-20T06:58:24.044Z,6.199
2023-04-20T06:59:24.536Z,6.099
2023-04-20T07:01:24.540Z,6.300
2023-04-20T07:02:24.401Z,6.099
2023-04-20T07:03:24.493Z,5.800
2023-04-20T07:04:23.679Z,6.199
2023-04-20T07:05:24.886Z,6.599
2023-04-20T07:06:24.247Z,6.099
2023-04-20T07:08:24.568Z,5.800
2023-04-20T07:09:24.210Z,6.199
2023-04-20T07:10:24.588Z,6.099
2023-04-20T07:11:29.474Z,6.400
2023-04-20T07:12:24.130Z,5.900
2023-04-20T07:13:24.307Z,6.099
2023-04-20T07:14:23.964Z,6.599
2023-04-20T07:15:24.160Z,6.199
2023-04-20T07:16:24.212Z,6.300
2023-04-20T07:17:24.222Z,6.599
2023-04-20T07:18:24.021Z,5.400
2023-04-20T07:19:31.673Z,5.900
2023-04-20T07:20:24.503Z,5.599
2023-04-20T07:21:24.550Z,6.099
2023-04-20T07:22:24.363Z,6.199
2023-04-20T07:23:23.920Z,6.099
2023-04-20T07:24:24.639Z,5.900
2023-04-20T07:25:24.471Z,5.699
2023-04-20T07:26:23.937Z,5.800
2023-04-20T07:27:23.637Z,5.900
2023-04-20T07:28:24.116Z,6.5
2023-04-20T07:29:24.043Z,6.300
2023-04-20T07:30:24.436Z,6.400
2023-04-20T07:31:24.749Z,6.099
2023-04-20T07:32:24.451Z,6
2023-04-20T07:33:24.143Z,6.400
2023-04-20T07:34:24.116Z,6.800
2023-04-20T07:35:23.956Z,6.199
2023-04-20T07:36:24.157Z,6.699
2023-04-20T07:37:25.734Z,6.599
2023-04-20T07:38:23.830Z,6.300
2023-04-20T07:39:24.549Z,6.800
2023-04-20T07:40:24.102Z,6.099
2023-04-20T07:41:23.677Z,6.199
2023-04-20T07:43:24.660Z,6.5
2023-04-20T07:44:24.229Z,6.599
2023-04-20T07:45:24.564Z,6.099
2023-04-20T07:46:24.331Z,5.800
2023-04-20T07:47:23.995Z,6.099
2023-04-20T07:48:24.042Z,5.900
2023-04-20T07:49:23.748Z,6.099
2023-04-20T07:50:24.741Z,6
2023-04-20T07:52:24.387Z,5.5
2023-04-20T07:53:24.377Z,6
2023-04-20T07:55:21.641Z,5.5
2023-04-20T07:57:24.488Z,5.599
2023-04-20T07:58:24.531Z,5.800
2023-04-20T07:59:24.401Z,5.900
2023-04-20T08:00:25.338Z,5.800
2023-04-20T08:01:24.251Z,5.199
2023-04-20T08:03:25.072Z,4.900
2023-04-20T08:05:24.528Z,4.800
2023-04-20T08:06:24.367Z,4.5
2023-04-20T08:07:24.311Z,4.699
2023-04-20T08:08:24.150Z,4.900
2023-04-20T08:09:23.790Z,5.099
2023-04-20T08:10:24.504Z,4.900
2023-04-20T08:11:23.953Z,4.699
2023-04-20T08:13:24.072Z,4.800
2023-04-20T08:14:23.947Z,4.599
2023-04-20T08:15:24.446Z,5.099
2023-04-20T08:16:24.172Z,5.300
2023-04-20T08:17:24.053Z,4.5
2023-04-20T08:18:23.577Z,5.099
2023-04-20T08:19:23.945Z,4.400
2023-04-20T08:20:24.069Z,5
2023-04-20T08:21:25.494Z,4.699
2023-04-20T08:22:23.576Z,5.099
2023-04-20T08:24:24.013Z,4.900
2023-04-20T08:25:25.545Z,4.699
2023-04-20T08:29:23.833Z,4.900
2023-04-20T08:30:24.690Z,5
2023-04-20T08:31:24.338Z,4.800
2023-04-20T08:32:24.224Z,5.099
2023-04-20T08:33:24.096Z,5
2023-04-20T08:34:24.017Z,4.800
2023-04-20T08:35:23.960Z,5.5
2023-04-20T08:36:24.091Z,4.699
2023-04-20T08:37:23.784Z,5.199
2023-04-20T08:38:33.440Z,5
2023-04-20T08:39:24.291Z,5.099
2023-04-20T08:40:24.475Z,4.5
2023-04-20T08:41:24.222Z,4.900
2023-04-20T08:42:23.982Z,4.5
2023-04-20T08:43:24.200Z,4.599
2023-04-20T08:44:23.994Z,4.199
2023-04-20T08:45:24.661Z,4.599
2023-04-20T08:46:24.703Z,4.400
2023-04-20T08:47:24.583Z,4.199
2023-04-20T08:49:24.033Z,4.099
2023-04-20T08:50:24.084Z,4.300
2023-04-20T08:51:24.229Z,3.799
2023-04-20T08:52:23.957Z,4.099
2023-04-20T08:54:24.822Z,3.799
2023-04-20T08:55:23.972Z,4.5
2023-04-20T08:56:23.948Z,4.400
2023-04-20T08:57:24.596Z,4.300
2023-04-20T08:58:24.584Z,4.199
2023-04-20T08:59:24.535Z,3.900
2023-04-20T09:00:25.335Z,4.199
2023-04-20T09:01:34.401Z,4.5
2023-04-20T09:03:24.394Z,4.099
2023-04-20T09:04:25.017Z,4.300
2023-04-20T09:05:24.182Z,4.199
2023-04-20T09:06:24.356Z,4.400
2023-04-20T09:07:24.267Z,3.900
2023-04-20T09:08:24.320Z,4
2023-04-20T09:09:24.509Z,4.099
2023-04-20T09:10:24.222Z,4
2023-04-20T09:13:24.304Z,3.799
2023-04-20T09:15:24.553Z,4
2023-04-20T09:16:24.182Z,4.099
2023-04-20T09:17:24.372Z,4.400
2023-04-20T09:18:24.420Z,4.199
2023-04-20T09:19:24.131Z,4.400
2023-04-20T09:20:23.881Z,4.300
2023-04-20T09:22:24.192Z,4.199
2023-04-20T09:23:24.425Z,4.599
2023-04-20T09:24:24.034Z,3.900
2023-04-20T09:25:24.344Z,4.099
2023-04-20T09:26:23.875Z,4
2023-04-20T09:27:24.331Z,4.099
2023-04-20T09:28:24.122Z,4
2023-04-20T09:29:23.878Z,4.599
2023-04-20T09:30:24.674Z,4.400
2023-04-20T09:31:24.358Z,4.300
2023-04-20T09:32:24.654Z,4.400
2023-04-20T09:34:24.133Z,4.099
2023-04-20T09:35:24.511Z,4
2023-04-20T09:36:23.933Z,4.699
2023-04-20T09:37:24.099Z,4.300
2023-04-20T09:39:24.287Z,4
2023-04-20T09:40:24.667Z,3.900
2023-04-20T09:42:24.197Z,3.799
2023-04-20T09:43:23.884Z,3.700
2023-04-20T09:45:24.625Z,3.599
2023-04-20T09:47:24.340Z,3.700
2023-04-20T09:48:24.290Z,3.599
2023-04-20T09:50:31.968Z,3.799
2023-04-20T09:51:24.281Z,3.400
2023-04-20T09:52:24.183Z,3.599
2023-04-20T09:53:23.983Z,3.700
2023-04-20T09:54:24.134Z,3.5
2023-04-20T09:57:24.064Z,3.299
2023-04-20T09:58:23.958Z,3.200
2023-04-20T10:00:25.006Z,3.400
2023-04-20T10:01:24.059Z,3.5
2023-04-20T10:02:24.224Z,3.200
2023-04-20T10:04:24.542Z,3.099
2023-04-20T10:08:24.343Z,3.200
2023-04-20T10:09:24.522Z,3
2023-04-20T10:10:43.352Z,3.299
2023-04-20T10:11:24.040Z,3.099
2023-04-20T10:13:24.492Z,3
2023-04-20T10:14:24.039Z,2.700
2023-04-20T10:15:24.521Z,2.799
2023-04-20T10:16:24.074Z,2.599
2023-04-20T10:17:24.553Z,2.700
2023-04-20T10:19:24.359Z,2.799
2023-04-20T10:20:24.577Z,2.400
2023-04-20T10:22:24.632Z,2.5
2023-04-20T10:23:24.474Z,2.900
2023-04-20T10:24:24.556Z,2.700
2023-04-20T10:25:24.173Z,2.599
2023-04-20T10:28:23.978Z,2.099
2023-04-20T10:29:23.909Z,2.200
2023-04-20T10:30:24.327Z,2.400
2023-04-20T10:31:24.436Z,2
2023-04-20T10:32:24.693Z,2.299
2023-04-20T10:33:24.370Z,2
2023-04-20T10:34:24.005Z,2.200
2023-04-20T10:36:23.894Z,2.400
2023-04-20T10:37:24.104Z,2.299
2023-04-20T10:38:24.305Z,2.599
2023-04-20T10:39:24.221Z,2.700
2023-04-20T10:40:24.668Z,2.400
2023-04-20T10:41:24.057Z,2.5
2023-04-20T10:42:23.950Z,2.400
2023-04-20T10:43:24.083Z,2.299
2023-04-20T10:44:23.917Z,2.200
2023-04-20T10:45:24.853Z,2
2023-04-20T10:47:28.148Z,1.799
2023-04-20T10:48:24.765Z,1.899
2023-04-20T10:49:23.926Z,1.799
2023-04-20T10:50:24.227Z,1.899
2023-04-20T10:51:24.021Z,1.600
2023-04-20T10:52:24.310Z,1.799
2023-04-20T10:54:24.076Z,1.899
2023-04-20T10:55:24.083Z,1.799
2023-04-20T10:56:23.803Z,2
2023-04-20T10:57:24.229Z,1.799
2023-04-20T10:58:24.240Z,1.700
2023-04-20T10:59:24.095Z,1.799
2023-04-20T11:01:23.980Z,2
2023-04-20T11:02:24.197Z,1.799
2023-04-20T11:03:24.439Z,1.700
2023-04-20T11:05:24.630Z,1.799
2023-04-20T11:06:24.280Z,1.700
2023-04-20T11:07:24.014Z,1.799
2023-04-20T11:08:24.309Z,1.700
2023-04-20T11:09:25.016Z,2
2023-04-20T11:10:25.020Z,1.899
2023-04-20T11:11:24.282Z,2.299
2023-04-20T11:12:24.213Z,2.400
2023-04-20T11:13:26.255Z,2.599
2023-04-20T11:14:24.137Z,2.099
2023-04-20T11:17:24.236Z,2
2023-04-20T11:19:24.276Z,2.099
2023-04-20T11:20:23.974Z,2
2023-04-20T11:21:24.043Z,2.299
2023-04-20T11:22:24.042Z,2.200
2023-04-20T11:25:23.832Z,2.099
2023-04-20T11:27:24.392Z,2.299
2023-04-20T11:28:24.286Z,2.799
2023-04-20T11:30:24.523Z,3.400
2023-04-20T11:31:24.416Z,2.700
2023-04-20T11:32:24.089Z,2.599
2023-04-20T11:34:24.185Z,2.5
2023-04-20T11:35:24.427Z,2.799
2023-04-20T11:36:24.502Z,2.900
2023-04-20T11:37:24.381Z,2.700
2023-04-20T11:38:24.714Z,2.5
2023-04-20T11:39:23.981Z,2.700
2023-04-20T11:40:25.689Z,3
2023-04-20T11:41:24.294Z,2.900
2023-04-20T11:42:24.499Z,2.700
2023-04-20T11:43:24.533Z,2.900
2023-04-20T11:44:24.379Z,2.700
2023-04-20T11:45:24.416Z,3
2023-04-20T11:46:23.839Z,2.799
2023-04-20T11:47:24.042Z,3
2023-04-20T11:48:24.517Z,2.799
2023-04-20T11:50:24.643Z,3
2023-04-20T11:51:24.236Z,2.799
2023-04-20T11:52:23.970Z,2.900
2023-04-20T11:53:23.732Z,3.5
2023-04-20T11:55:24.476Z,3.700
2023-04-20T11:56:24.117Z,4
2023-04-20T11:57:24.125Z,3.799
2023-04-20T11:58:23.761Z,3.400
2023-04-20T11:59:24.308Z,3.5
2023-04-20T12:00:24.961Z,3
2023-04-20T12:01:24.353Z,3.099
2023-04-20T12:02:24.367Z,2.700
2023-04-20T12:03:24.160Z,3
2023-04-20T12:04:24.653Z,2.799
2023-04-20T12:05:24.441Z,3
2023-04-20T12:07:29.565Z,3.099
2023-04-20T12:08:24.517Z,3.400
2023-04-20T12:09:24.353Z,3
2023-04-20T12:10:24.314Z,3.200
2023-04-20T12:13:24.418Z,3.400
2023-04-20T12:14:24.362Z,2.900
2023-04-20T12:15:24.496Z,3.200
2023-04-20T12:17:24.529Z,3.299
2023-04-20T12:19:24.830Z,3.599
2023-04-20T12:20:25.095Z,3.5
2023-04-20T12:21:23.936Z,3.299
2023-04-20T12:22:24.084Z,3.599
2023-04-20T12:23:23.973Z,4.599
2023-04-20T12:24:24.151Z,3.900
2023-04-20T12:25:24.554Z,3.599
2023-04-20T12:28:24.003Z,3.700
2023-04-20T12:29:23.935Z,3.599
2023-04-20T12:30:25.058Z,4
2023-04-20T12:31:38.181Z,3.799
2023-04-20T12:32:24.146Z,4.199
2023-04-20T12:35:43.661Z,4.099
2023-04-20T12:36:24.027Z,4.599
2023-04-20T12:37:24.153Z,4.199
2023-04-20T12:38:24.207Z,4.599
2023-04-20T12:39:24.093Z,4.800
2023-04-20T12:40:24.309Z,4.699
2023-04-20T12:41:24.364Z,4.5
2023-04-20T12:42:24.238Z,4.599
2023-04-20T12:43:24.118Z,4.300
2023-04-20T12:44:23.934Z,4.199
2023-04-20T12:45:24.496Z,4.599
2023-04-20T12:46:24.296Z,5
2023-04-20T12:47:24.006Z,4.599
2023-04-20T12:48:24.055Z,4.300
2023-04-20T12:50:24.614Z,4.099
2023-04-20T12:51:24.032Z,4.300
2023-04-20T12:53:24.261Z,4.800
2023-04-20T12:54:24.521Z,4.599
2023-04-20T12:55:23.963Z,4.5
2023-04-20T12:56:24.292Z,4.400
2023-04-20T12:57:24.217Z,4.099
2023-04-20T12:58:24.303Z,4.300
2023-04-20T12:59:24.033Z,4
2023-04-20T13:00:24.824Z,4.300
2023-04-20T13:01:24.357Z,4.5
2023-04-20T13:02:24.663Z,4.199
2023-04-20T13:04:24.666Z,3.900
2023-04-20T13:05:24.847Z,4.400
2023-04-20T13:06:24.243Z,4.300
2023-04-20T13:07:24.538Z,4.199
2023-04-20T13:08:24.286Z,3.900
2023-04-20T13:09:24.132Z,4.699
2023-04-20T13:10:24.459Z,4.099
2023-04-20T13:12:24.259Z,4.400
2023-04-20T13:13:24.297Z,4.300
2023-04-20T13:14:24.402Z,4
2023-04-20T13:16:24.334Z,3.799
2023-04-20T13:17:24.470Z,3.700
2023-04-20T13:18:24.345Z,3.799
2023-04-20T13:19:24.337Z,3.599
2023-04-20T13:20:24.441Z,3.900
2023-04-20T13:21:24.526Z,3.5
2023-04-20T13:22:24.499Z,3.700
2023-04-20T13:23:24.579Z,3.799
2023-04-20T13:25:25.111Z,3.700
2023-04-20T13:26:24.279Z,3.5
2023-04-20T13:27:24.460Z,3.700
2023-04-20T13:28:24.346Z,3.400
2023-04-20T13:30:28.676Z,3.400
2023-04-20T13:32:24.478Z,3.700
2023-04-20T13:33:24.300Z,3.599
2023-04-20T13:34:24.513Z,3.5
2023-04-20T13:35:25.076Z,3.700
2023-04-20T13:36:23.880Z,3.5
2023-04-20T13:37:24.453Z,3.799
2023-04-20T13:38:24.771Z,3.400
2023-04-20T13:39:24.375Z,3.299
2023-04-20T13:40:24.550Z,3.700
2023-04-20T13:41:24.387Z,3.599
2023-04-20T13:42:24.409Z,3.799
2023-04-20T13:43:24.435Z,3.400
2023-04-20T13:44:24.108Z,3.900
2023-04-20T13:45:24.394Z,3.599
2023-04-20T13:46:24.306Z,3.900
2023-04-20T13:47:24.434Z,4.099
2023-04-20T13:48:24.808Z,3.599
2023-04-20T13:49:23.894Z,4
2023-04-20T13:50:24.710Z,3.900
2023-04-20T13:51:24.258Z,4.099
2023-04-20T13:52:24.169Z,3.599
2023-04-20T13:53:24.399Z,3.799
2023-04-20T13:55:26.808Z,3.900
2023-04-20T13:57:24.503Z,4
2023-04-20T13:59:24.296Z,4.300
2023-04-20T14:00:25.185Z,4.099
2023-04-20T14:01:24.539Z,4
2023-04-20T14:03:24.835Z,4.300
2023-04-20T14:04:24.571Z,4.099
2023-04-20T14:05:24.846Z,3.900
2023-04-20T14:06:24.047Z,3.799
2023-04-20T14:07:24.098Z,3.900
2023-04-20T14:09:24.001Z,4
2023-04-20T14:10:23.897Z,3.700
2023-04-20T14:11:24.173Z,4.300
2023-04-20T14:13:24.155Z,4
2023-04-20T14:14:24.241Z,3.700
2023-04-20T14:16:24.417Z,3.799
2023-04-20T14:17:24.306Z,3.5
2023-04-20T14:18:24.119Z,4
2023-04-20T14:19:23.958Z,3.700
2023-04-20T14:21:24.221Z,3.799
2023-04-20T14:22:28.903Z,4
2023-04-20T14:23:24.535Z,3.299
2023-04-20T14:24:24.262Z,4.099
2023-04-20T14:25:24.333Z,3.700
2023-04-20T14:26:24.358Z,3.799
2023-04-20T14:27:24.166Z,4.099
2023-04-20T14:28:24.446Z,3.900
2023-04-20T14:29:24.326Z,3.799
2023-04-20T14:30:24.555Z,3.700
2023-04-20T14:31:24.483Z,3.900
2023-04-20T14:32:25.043Z,3.700
2023-04-20T14:35:24.223Z,3.900
2023-04-20T14:36:24.465Z,3.5
2023-04-20T14:37:24.333Z,3.900
2023-04-20T14:39:24.377Z,4
2023-04-20T14:40:24.801Z,4.300
2023-04-20T14:41:23.972Z,4
2023-04-20T14:42:24.472Z,3.700
2023-04-20T14:43:24.346Z,3.900
2023-04-20T14:45:24.013Z,3.799
2023-04-20T14:47:24.399Z,3.700
2023-04-20T14:48:24.538Z,3.799
2023-04-20T14:50:24.570Z,3.599
2023-04-20T14:51:23.629Z,3.5
2023-04-20T14:53:24.986Z,3.799
2023-04-20T14:54:25.023Z,4
2023-04-20T14:55:24.885Z,3.700
2023-04-20T14:56:24.213Z,3.799
2023-04-20T14:57:24.272Z,3.900
2023-04-20T14:58:24.418Z,4
2023-04-20T14:59:24.108Z,4.099
2023-04-20T15:00:24.914Z,3.799
2023-04-20T15:01:24.778Z,3.900
2023-04-20T15:02:24.384Z,3.799
2023-04-20T15:05:24.865Z,3.5
2023-04-20T15:06:24.281Z,3.799
2023-04-20T15:07:24.419Z,3.700
2023-04-20T15:08:43.633Z,4
2023-04-20T15:09:24.313Z,4.199
2023-04-20T15:10:46.918Z,3.900
2023-04-20T15:11:24.510Z,4.900
2023-04-20T15:12:24.141Z,4.300
2023-04-20T15:14:24.090Z,4.400
2023-04-20T15:15:25.469Z,4.300
2023-04-20T15:16:24.438Z,4.199
2023-04-20T15:18:24.689Z,4.599
2023-04-20T15:19:24.440Z,4
2023-04-20T15:20:24.940Z,4.300
2023-04-20T15:21:24.376Z,4.199
2023-04-20T15:22:24.669Z,3.900
2023-04-20T15:23:24.630Z,4.099
2023-04-20T15:24:24.030Z,4.400
2023-04-20T15:25:24.606Z,4.099
2023-04-20T15:26:24.454Z,4.199
2023-04-20T15:27:24.572Z,4
2023-04-20T15:28:24.504Z,4.300
2023-04-20T15:29:24.587Z,4
2023-04-20T15:30:24.991Z,4.099
2023-04-20T15:31:24.000Z,3.900
2023-04-20T15:32:24.080Z,3.700
2023-04-20T15:33:23.852Z,4.099
2023-04-20T15:34:24.423Z,4.300
2023-04-20T15:35:24.452Z,4.099
2023-04-20T15:36:24.590Z,4.5
2023-04-20T15:37:24.527Z,4.599
2023-04-20T15:38:24.528Z,4
2023-04-20T15:39:24.246Z,4.099
2023-04-20T15:40:24.237Z,3.900
2023-04-20T15:41:23.940Z,4.300
2023-04-20T15:42:24.455Z,4.199
2023-04-20T15:43:24.542Z,4.300
2023-04-20T15:44:24.101Z,4.400